Time;durP1;ratioP1;P1;durP2;ratioP2;P2;SDS_P1;SDS_P2;PMS_P1;PMS_P2;Temp;Humidity;BMP_temperature;BMP_pressure;BME280_temperature;BME280_humidity;BME280_pressure;Samples;Min_cycle;Max_cycle;Signal;HPM_P1;HPM_P2
2021/01/02 00:00:53;;;;;;;58.87;38.37;;;;;;;5.85;72.37;100639.22;5036696;28;20178;-72
2021/01/02 00:03:53;;;;;;;62.57;39.50;;;;;;;5.67;72.37;100631.81;5037024;28;20185;-71
2021/01/02 00:06:24;;;;;;;56.80;36.93;;;;;;;5.77;72.52;100640.72;5045123;28;20197;-71
2021/01/02 00:08:53;;;;;;;59.73;39.17;;;;;;;5.47;72.69;100642.47;5036977;28;20821;-72
2021/01/02 00:11:34;;;;;;;55.53;37.63;;;;;;;5.51;73.27;100640.88;5036663;28;20719;-71
2021/01/02 00:14:07;;;;;;;53.33;37.13;;;;;;;5.68;72.96;100643.91;5037671;28;20803;-71
2021/01/02 00:16:58;;;;;;;61.93;38.10;;;;;;;5.68;72.41;100657.75;5040469;28;20445;-72
2021/01/02 00:20:11;;;;;;;59.20;39.07;;;;;;;5.63;72.94;100650.66;5039537;28;20937;-72
2021/01/02 00:22:54;;;;;;;58.77;37.70;;;;;;;5.50;73.12;100654.63;5040404;28;20435;-73
2021/01/02 00:25:24;;;;;;;56.43;36.47;;;;;;;5.89;71.75;100657.44;5040212;28;20543;-72
2021/01/02 00:28:22;;;;;;;55.67;37.30;;;;;;;5.63;72.69;100648.06;5040083;28;20743;-71
2021/01/02 00:30:59;;;;;;;55.40;37.60;;;;;;;5.65;72.71;100655.03;5043148;28;20460;-72
2021/01/02 00:33:41;;;;;;;60.73;39.10;;;;;;;5.82;72.08;100652.03;5040245;28;20499;-72
2021/01/02 00:36:13;;;;;;;69.23;43.73;;;;;;;5.76;72.63;100651.91;5039388;28;20413;-71
2021/01/02 00:38:38;;;;;;;55.03;36.87;;;;;;;5.74;72.05;100649.28;5039386;28;20468;-71
2021/01/02 00:41:05;;;;;;;57.63;39.37;;;;;;;5.81;71.59;100645.16;5040033;28;20558;-72
2021/01/02 00:43:33;;;;;;;57.03;36.00;;;;;;;6.00;71.00;100644.81;5040261;28;20189;-73
2021/01/02 00:45:58;;;;;;;56.30;37.20;;;;;;;5.97;71.26;100649.03;5039882;28;20439;-72
2021/01/02 00:48:24;;;;;;;54.60;37.77;;;;;;;6.00;70.41;100643.97;5040044;28;20475;-72
2021/01/02 00:50:50;;;;;;;57.80;38.03;;;;;;;6.02;70.61;100650.03;5040085;28;20174;-72
2021/01/02 00:53:41;;;;;;;52.27;37.40;;;;;;;6.10;70.42;100652.84;5039791;28;20520;-72
2021/01/02 00:56:28;;;;;;;52.93;36.67;;;;;;;5.73;71.34;100653.53;5039720;28;20541;-73
2021/01/02 00:59:17;;;;;;;56.50;36.77;;;;;;;5.67;71.50;100653.41;5039592;28;20456;-73
2021/01/02 01:01:45;;;;;;;55.10;36.20;;;;;;;5.62;71.75;100659.28;5038931;28;20524;-72
2021/01/02 01:04:29;;;;;;;54.00;36.73;;;;;;;5.81;71.18;100655.50;5039618;28;20425;-72
2021/01/02 01:06:56;;;;;;;53.27;36.50;;;;;;;5.78;71.46;100660.56;5038882;28;20420;-71
2021/01/02 01:09:25;;;;;;;50.37;33.70;;;;;;;5.78;71.33;100663.16;5039177;28;20682;-71
2021/01/02 01:11:54;;;;;;;52.67;36.50;;;;;;;5.82;70.66;100664.97;5038649;28;20794;-71
2021/01/02 01:14:20;;;;;;;56.13;37.57;;;;;;;5.57;71.20;100662.59;5039641;28;20741;-72
2021/01/02 01:16:47;;;;;;;50.57;35.80;;;;;;;6.04;70.61;100666.50;5039463;28;20416;-72
2021/01/02 01:19:15;;;;;;;46.60;31.93;;;;;;;5.85;70.15;100667.69;5038312;28;20602;-72
2021/01/02 01:21:44;;;;;;;47.67;34.97;;;;;;;5.88;71.25;100672.94;5039283;28;20417;-72
2021/01/02 01:24:23;;;;;;;46.57;33.03;;;;;;;5.78;70.85;100676.06;5038567;28;20461;-72
2021/01/02 01:27:26;;;;;;;53.93;33.93;;;;;;;5.61;70.91;100676.47;5038328;28;20417;-71
2021/01/02 01:29:57;;;;;;;45.07;32.07;;;;;;;5.55;71.97;100684.09;5038946;28;20819;-71
2021/01/02 01:32:24;;;;;;;53.57;36.57;;;;;;;5.72;71.11;100677.69;5038991;28;20451;-70
2021/01/02 01:35:00;;;;;;;55.27;35.53;;;;;;;5.67;71.58;100689.59;5038987;28;20850;-74
2021/01/02 01:37:32;;;;;;;72.23;44.87;;;;;;;5.66;71.29;100690.44;5038614;28;20474;-72
2021/01/02 01:39:59;;;;;;;57.87;36.43;;;;;;;5.63;71.98;100686.88;5038629;28;20417;-72
2021/01/02 01:42:43;;;;;;;50.57;35.63;;;;;;;5.41;71.82;100691.41;5038696;28;20428;-72
2021/01/02 01:45:21;;;;;;;48.87;35.70;;;;;;;5.48;71.33;100697.63;5038063;28;20728;-71
2021/01/02 01:48:08;;;;;;;50.93;35.20;;;;;;;5.65;71.73;100695.56;5038625;28;20428;-72
2021/01/02 01:51:18;;;;;;;48.67;33.27;;;;;;;5.79;70.99;100690.78;5038451;28;21107;-72
2021/01/02 01:54:00;;;;;;;46.60;32.10;;;;;;;5.32;73.19;100692.03;5040098;28;20458;-72
2021/01/02 01:56:38;;;;;;;52.47;35.40;;;;;;;5.37;72.79;100695.63;5037653;28;20417;-71
2021/01/02 01:59:11;;;;;;;54.30;35.67;;;;;;;5.35;72.01;100693.81;5037536;28;20472;-71
2021/01/02 02:01:37;;;;;;;46.83;35.23;;;;;;;5.52;71.77;100691.72;5037628;28;20421;-73
2021/01/02 02:04:11;;;;;;;50.17;33.53;;;;;;;5.61;70.79;100699.75;5038302;28;20474;-72
2021/01/02 02:06:37;;;;;;;46.37;32.50;;;;;;;5.49;71.86;100702.84;5037415;28;20474;-72
2021/01/02 02:09:03;;;;;;;52.80;34.70;;;;;;;5.28;72.99;100692.75;5038314;28;20794;-72
2021/01/02 02:11:37;;;;;;;44.73;31.53;;;;;;;5.34;72.11;100695.50;5038549;28;20209;-73
2021/01/02 02:14:12;;;;;;;46.70;33.50;;;;;;;5.51;72.11;100698.63;5038154;28;20253;-72
2021/01/02 02:16:51;;;;;;;51.77;35.00;;;;;;;5.39;72.55;100704.28;5038394;28;20462;-72
2021/01/02 02:19:43;;;;;;;50.07;35.30;;;;;;;5.29;74.76;100710.03;5038036;28;20571;-72
2021/01/02 02:22:14;;;;;;;53.20;34.87;;;;;;;5.37;72.89;100705.97;5038143;28;20831;-72
2021/01/02 02:24:42;;;;;;;46.70;33.20;;;;;;;5.10;73.59;100710.28;5037899;28;20968;-72
2021/01/02 02:27:11;;;;;;;49.53;33.70;;;;;;;5.54;71.83;100703.00;5038076;28;20417;-73
2021/01/02 02:29:38;;;;;;;43.10;32.80;;;;;;;5.65;71.40;100703.31;5037793;28;20420;-72
2021/01/02 02:32:07;;;;;;;41.53;30.33;;;;;;;5.52;71.02;100707.25;5037904;28;20423;-72
2021/01/02 02:34:33;;;;;;;41.70;30.60;;;;;;;5.44;72.36;100700.97;5038115;28;20439;-73
2021/01/02 02:36:59;;;;;;;44.70;31.37;;;;;;;5.57;71.82;100703.09;5036550;28;20412;-72
2021/01/02 02:39:24;;;;;;;44.10;32.00;;;;;;;5.47;71.47;100707.13;5037547;28;20701;-72
2021/01/02 02:41:51;;;;;;;45.53;31.77;;;;;;;5.05;72.67;100711.00;5037996;28;20181;-73
2021/01/02 02:44:20;;;;;;;38.70;28.97;;;;;;;5.09;73.05;100705.94;5037612;28;20181;-73
2021/01/02 02:46:47;;;;;;;47.93;33.23;;;;;;;5.20;72.65;100709.75;5037767;28;20452;-73
2021/01/02 02:49:16;;;;;;;47.20;32.80;;;;;;;5.09;73.51;100701.66;5037881;28;20420;-71
2021/01/02 02:52:15;;;;;;;49.47;34.37;;;;;;;5.19;73.93;100702.81;5036869;28;20425;-72
2021/01/02 02:54:43;;;;;;;50.87;34.40;;;;;;;5.20;73.11;100704.56;5047493;28;20448;-72
2021/01/02 02:57:09;;;;;;;49.47;33.50;;;;;;;5.15;72.98;100700.97;5036886;28;20413;-72
2021/01/02 02:59:34;;;;;;;45.47;32.70;;;;;;;5.23;73.00;100705.53;5036632;28;20547;-72
2021/01/02 03:02:04;;;;;;;47.77;33.13;;;;;;;4.99;74.42;100708.25;5037896;28;20463;-72
2021/01/02 03:04:32;;;;;;;49.83;33.50;;;;;;;5.08;73.69;100707.66;5037348;28;20444;-72
2021/01/02 03:06:57;;;;;;;54.57;35.40;;;;;;;5.20;72.55;100705.44;5037710;28;20463;-71
2021/01/02 03:09:22;;;;;;;50.57;33.97;;;;;;;5.11;73.83;100706.88;5037220;28;20421;-72
2021/01/02 03:11:48;;;;;;;50.23;34.07;;;;;;;5.04;73.75;100714.41;5036822;28;20263;-71
2021/01/02 03:14:13;;;;;;;45.70;34.03;;;;;;;5.25;73.54;100715.03;5037461;28;20209;-71
2021/01/02 03:16:38;;;;;;;51.80;34.30;;;;;;;5.44;72.92;100716.47;5038040;28;20201;-72
2021/01/02 03:19:05;;;;;;;47.40;33.60;;;;;;;5.46;72.43;100725.19;5037171;28;20210;-72
2021/01/02 03:21:30;;;;;;;46.63;32.67;;;;;;;5.24;74.40;100719.34;5037377;28;20196;-72
2021/01/02 03:23:57;;;;;;;46.30;31.17;;;;;;;5.46;72.53;100720.00;5036576;28;20504;-72
2021/01/02 03:26:22;;;;;;;49.13;32.27;;;;;;;5.38;72.60;100722.34;5036408;28;20423;-73
2021/01/02 03:28:49;;;;;;;48.60;33.60;;;;;;;5.38;73.16;100730.97;5037337;28;20479;-72
2021/01/02 03:31:14;;;;;;;44.13;32.40;;;;;;;5.40;73.54;100728.47;5037216;28;20186;-73
2021/01/02 03:33:40;;;;;;;49.10;33.70;;;;;;;5.60;71.89;100733.34;5037133;28;20436;-73
2021/01/02 03:36:05;;;;;;;50.10;33.93;;;;;;;5.42;72.95;100738.84;5037574;28;20201;-73
2021/01/02 03:38:33;;;;;;;50.10;35.80;;;;;;;5.62;72.38;100737.72;5037123;28;20206;-72
2021/01/02 03:41:00;;;;;;;44.33;32.23;;;;;;;6.01;70.93;100733.72;5036874;28;20180;-71
2021/01/02 03:43:25;;;;;;;40.60;30.77;;;;;;;5.76;72.17;100732.09;5037486;28;20412;-72
2021/01/02 03:45:52;;;;;;;49.70;32.03;;;;;;;5.69;72.07;100739.66;5036895;28;20541;-72
2021/01/02 03:48:17;;;;;;;48.33;34.33;;;;;;;5.79;71.32;100730.47;5037436;28;20178;-73
2021/01/02 03:50:42;;;;;;;45.47;32.73;;;;;;;5.87;71.68;100733.25;5041035;28;20821;-72
2021/01/02 03:53:07;;;;;;;46.60;32.43;;;;;;;5.63;72.47;100736.91;5040693;28;20202;-72
2021/01/02 03:55:33;;;;;;;42.60;29.77;;;;;;;5.78;72.07;100733.00;5040849;28;20170;-72
2021/01/02 03:57:58;;;;;;;43.60;30.50;;;;;;;5.52;72.99;100743.44;5041045;28;20272;-72
2021/01/02 04:00:24;;;;;;;45.80;33.10;;;;;;;5.60;72.37;100739.38;5040391;28;20217;-72
2021/01/02 04:02:49;;;;;;;46.57;30.83;;;;;;;5.60;72.56;100739.38;5040635;28;20269;-72
2021/01/02 04:05:14;;;;;;;45.53;30.73;;;;;;;5.64;72.18;100736.06;5040954;28;20556;-72
2021/01/02 04:07:40;;;;;;;45.07;32.37;;;;;;;5.72;72.20;100746.63;5040704;28;20174;-72
2021/01/02 04:10:05;;;;;;;46.80;31.07;;;;;;;5.97;71.13;100734.41;5040598;28;20174;-71
2021/01/02 04:12:31;;;;;;;40.60;29.60;;;;;;;5.70;73.60;100741.41;5041316;28;20179;-71
2021/01/02 04:14:56;;;;;;;40.93;30.40;;;;;;;5.88;71.65;100742.78;5040402;28;20520;-71
2021/01/02 04:17:21;;;;;;;43.97;31.90;;;;;;;5.81;72.36;100741.72;5034235;28;20265;-71
2021/01/02 04:19:47;;;;;;;41.83;29.23;;;;;;;6.02;70.90;100741.50;5040458;28;20439;-72
2021/01/02 04:22:12;;;;;;;40.57;30.30;;;;;;;5.84;71.00;100743.53;5030979;28;20186;-72
2021/01/02 04:24:37;;;;;;;42.90;28.93;;;;;;;5.95;70.95;100736.94;5022266;28;20218;-73
2021/01/02 04:27:03;;;;;;;41.70;28.60;;;;;;;5.83;71.59;100736.59;5024201;28;20187;-73
2021/01/02 04:29:28;;;;;;;39.33;28.80;;;;;;;6.13;71.97;100740.91;5031349;28;20187;-72
2021/01/02 04:31:55;;;;;;;40.70;27.73;;;;;;;5.74;72.00;100738.09;5033406;28;20280;-72
2021/01/02 04:34:21;;;;;;;37.70;28.57;;;;;;;5.87;71.73;100739.34;5031001;28;20174;-73
2021/01/02 04:36:48;;;;;;;40.53;29.40;;;;;;;5.92;71.89;100742.03;5033955;28;20718;-71
2021/01/02 04:39:13;;;;;;;40.47;30.10;;;;;;;5.69;73.03;100744.81;5039634;28;20217;-73
2021/01/02 04:41:41;;;;;;;37.83;29.07;;;;;;;6.05;71.10;100741.59;5038787;28;20436;-72
2021/01/02 04:44:06;;;;;;;42.13;28.27;;;;;;;5.86;71.83;100741.88;5039027;28;20224;-72
2021/01/02 04:46:32;;;;;;;41.27;29.00;;;;;;;5.98;71.49;100742.25;5039799;28;20420;-73
2021/01/02 04:48:57;;;;;;;43.07;30.33;;;;;;;6.26;70.29;100743.00;5039979;28;20197;-72
2021/01/02 04:51:23;;;;;;;36.90;28.00;;;;;;;5.99;71.84;100743.13;5039699;28;20213;-73
2021/01/02 04:53:48;;;;;;;36.63;27.37;;;;;;;5.92;71.73;100744.63;5039734;28;20267;-71
2021/01/02 04:56:14;;;;;;;35.40;27.37;;;;;;;6.09;71.27;100750.31;5040077;28;20174;-71
2021/01/02 04:58:41;;;;;;;39.43;26.50;;;;;;;5.83;73.01;100746.94;5039738;28;20348;-72
2021/01/02 05:01:08;;;;;;;37.27;27.13;;;;;;;5.64;72.92;100748.13;5039289;28;20224;-73
2021/01/02 05:03:34;;;;;;;39.37;27.57;;;;;;;5.78;72.58;100749.41;5040008;28;20424;-72
2021/01/02 05:06:01;;;;;;;41.10;27.57;;;;;;;5.52;73.34;100751.19;5038929;28;20968;-73
2021/01/02 05:08:26;;;;;;;40.93;28.80;;;;;;;5.70;72.46;100753.47;5039532;28;20499;-72
2021/01/02 05:10:59;;;;;;;37.80;26.70;;;;;;;5.42;74.22;100759.53;5039856;28;20745;-72
2021/01/02 05:13:32;;;;;;;41.63;28.60;;;;;;;5.65;72.83;100761.09;5039654;28;20487;-72
2021/01/02 05:16:15;;;;;;;42.63;29.13;;;;;;;5.47;74.09;100763.13;5039409;28;20798;-71
2021/01/02 05:18:58;;;;;;;41.23;28.17;;;;;;;5.62;73.53;100762.72;5039322;28;20464;-71
2021/01/02 05:21:27;;;;;;;39.50;29.10;;;;;;;5.74;73.02;100761.38;5039442;28;20421;-71
2021/01/02 05:24:10;;;;;;;45.40;32.00;;;;;;;5.66;73.37;100762.84;5039133;28;20435;-71
2021/01/02 05:26:47;;;;;;;43.90;30.13;;;;;;;6.04;72.53;100757.94;5039247;28;20423;-72
2021/01/02 05:29:13;;;;;;;42.17;28.57;;;;;;;5.48;74.08;100768.34;5038457;28;20428;-72
2021/01/02 05:31:39;;;;;;;42.80;30.47;;;;;;;5.89;72.50;100773.88;5039021;28;20761;-72
2021/01/02 05:34:09;;;;;;;45.53;30.70;;;;;;;5.61;73.88;100772.16;5038915;28;20438;-71
2021/01/02 05:36:35;;;;;;;42.20;30.37;;;;;;;5.84;72.89;100770.25;5038841;28;20224;-72
2021/01/02 05:39:00;;;;;;;44.27;29.90;;;;;;;5.65;73.02;100768.84;5039004;28;20748;-72
2021/01/02 05:41:26;;;;;;;43.17;28.40;;;;;;;6.10;72.91;100769.31;5038049;28;20194;-73
2021/01/02 05:43:52;;;;;;;42.90;29.93;;;;;;;6.01;72.64;100775.13;5038751;28;20249;-72
2021/01/02 05:46:21;;;;;;;46.50;31.70;;;;;;;5.96;72.59;100780.09;5039238;28;20462;-73
2021/01/02 05:48:46;;;;;;;39.27;29.47;;;;;;;5.85;73.27;100786.69;5038721;28;20437;-71
2021/01/02 05:51:12;;;;;;;44.23;31.30;;;;;;;5.84;72.93;100787.50;5037670;28;20433;-71
2021/01/02 05:53:37;;;;;;;46.40;31.90;;;;;;;6.13;72.30;100778.03;5038678;28;20163;-73
2021/01/02 05:56:11;;;;;;;47.20;30.73;;;;;;;5.93;73.04;100790.38;5038419;28;20474;-73
2021/01/02 05:58:44;;;;;;;47.37;30.90;;;;;;;5.81;73.82;100792.59;5038479;28;20198;-72
2021/01/02 06:01:17;;;;;;;43.73;29.03;;;;;;;5.92;73.23;100787.75;5039011;28;20897;-71
2021/01/02 06:03:47;;;;;;;55.87;32.20;;;;;;;6.00;72.59;100787.16;5038532;28;20428;-71
2021/01/02 06:06:15;;;;;;;46.27;29.33;;;;;;;5.57;73.55;100789.31;5038401;28;20424;-71
2021/01/02 06:08:48;;;;;;;45.37;29.53;;;;;;;6.13;72.17;100790.09;5038347;28;20417;-71
2021/01/02 06:11:16;;;;;;;42.10;29.90;;;;;;;5.60;73.02;100796.28;5037755;28;20749;-71
2021/01/02 06:13:44;;;;;;;47.60;29.53;;;;;;;6.07;71.79;100799.47;5038243;28;20432;-71
2021/01/02 06:16:09;;;;;;;45.50;30.17;;;;;;;6.24;71.38;100793.88;5038619;28;20512;-71
2021/01/02 06:18:37;;;;;;;44.77;29.87;;;;;;;5.92;72.41;100798.97;5038266;28;20595;-72
2021/01/02 06:21:05;;;;;;;42.93;28.83;;;;;;;5.86;72.30;100801.38;5037842;28;20170;-71
2021/01/02 06:23:33;;;;;;;42.83;27.60;;;;;;;5.64;73.19;100798.16;5038527;28;20409;-72
2021/01/02 06:25:58;;;;;;;40.87;29.43;;;;;;;5.91;72.23;100802.38;5037977;28;20913;-71
2021/01/02 06:28:26;;;;;;;46.30;29.27;;;;;;;5.90;72.84;100803.22;5037877;28;20516;-71
2021/01/02 06:30:59;;;;;;;42.80;30.80;;;;;;;5.63;72.94;100806.72;5038048;28;20170;-71
2021/01/02 06:33:25;;;;;;;38.23;27.27;;;;;;;5.70;73.79;100808.66;5037795;28;20417;-72
2021/01/02 06:35:50;;;;;;;38.93;28.60;;;;;;;5.61;74.36;100810.97;5037850;28;20420;-72
2021/01/02 06:38:16;;;;;;;43.57;28.33;;;;;;;5.90;72.76;100809.28;5038061;28;20445;-71
2021/01/02 06:40:45;;;;;;;44.17;29.97;;;;;;;6.03;72.37;100820.00;5037721;28;20177;-71
2021/01/02 06:43:12;;;;;;;46.93;28.90;;;;;;;5.73;73.27;100813.91;5037831;28;20167;-71
2021/01/02 06:45:38;;;;;;;46.67;32.63;;;;;;;6.19;71.89;100818.75;5037193;28;20432;-71
2021/01/02 06:48:12;;;;;;;44.60;29.60;;;;;;;6.05;72.20;100813.19;5037584;28;20413;-71
2021/01/02 06:50:38;;;;;;;44.33;29.53;;;;;;;5.55;73.43;100818.56;5037422;28;20182;-71
2021/01/02 06:53:32;;;;;;;44.70;28.47;;;;;;;5.74;73.47;100820.00;5037251;28;20405;-71
2021/01/02 06:56:11;;;;;;;45.10;29.87;;;;;;;5.92;72.32;100817.06;5037597;28;20174;-71
2021/01/02 06:58:46;;;;;;;43.77;29.93;;;;;;;6.03;72.36;100820.00;5037410;28;20546;-70
2021/01/02 07:01:18;;;;;;;43.30;28.07;;;;;;;5.66;73.05;100824.91;5037426;28;20826;-71
2021/01/02 07:03:50;;;;;;;41.90;27.90;;;;;;;5.80;73.75;100827.91;5037533;28;20401;-72
2021/01/02 07:06:24;;;;;;;46.37;29.83;;;;;;;5.76;72.81;100831.25;5037436;28;20420;-71
2021/01/02 07:08:54;;;;;;;45.30;29.50;;;;;;;5.59;73.51;100828.16;5037359;28;20811;-72
2021/01/02 07:11:44;;;;;;;47.27;30.17;;;;;;;5.81;72.81;100836.59;5036432;28;20420;-71
2021/01/02 07:14:09;;;;;;;48.40;31.80;;;;;;;5.78;72.58;100839.94;5037463;28;20417;-72
2021/01/02 07:16:47;;;;;;;45.17;29.67;;;;;;;5.73;72.90;100834.63;5037255;28;20466;-71
2021/01/02 07:19:24;;;;;;;49.00;31.73;;;;;;;5.84;72.11;100842.72;5037019;28;20299;-71
2021/01/02 07:22:01;;;;;;;46.13;31.43;;;;;;;5.98;71.38;100848.34;5037353;28;20466;-72
2021/01/02 07:24:27;;;;;;;47.33;31.40;;;;;;;5.78;72.69;100844.22;5039841;28;20518;-71
2021/01/02 07:27:00;;;;;;;47.03;31.40;;;;;;;5.98;72.17;100853.53;5041264;28;20416;-72
2021/01/02 07:29:27;;;;;;;46.10;31.43;;;;;;;5.95;72.02;100860.28;5041028;28;20169;-72
2021/01/02 07:31:53;;;;;;;48.97;32.80;;;;;;;6.21;70.82;100858.50;5041295;28;20417;-72
2021/01/02 07:34:22;;;;;;;55.70;31.90;;;;;;;6.21;71.16;100863.66;5041264;28;20408;-72
2021/01/02 07:36:49;;;;;;;43.13;29.53;;;;;;;5.91;72.03;100869.66;5041418;28;20219;-71
2021/01/02 07:39:16;;;;;;;43.10;31.30;;;;;;;6.18;71.29;100874.84;5040193;28;21362;-72
2021/01/02 07:41:41;;;;;;;49.23;32.00;;;;;;;6.14;70.98;100879.84;5041220;28;20408;-71
2021/01/02 07:44:07;;;;;;;49.13;33.00;;;;;;;6.14;70.40;100882.44;5041764;28;20428;-71
2021/01/02 07:46:33;;;;;;;47.93;31.63;;;;;;;6.31;71.39;100881.25;5041016;28;20166;-72
2021/01/02 07:48:58;;;;;;;44.67;30.10;;;;;;;6.02;71.73;100893.31;5040662;28;20420;-71
2021/01/02 07:51:26;;;;;;;46.10;30.63;;;;;;;6.27;70.72;100894.06;5041198;28;20158;-72
2021/01/02 07:53:54;;;;;;;44.77;32.77;;;;;;;5.90;71.52;100898.97;5040824;28;20170;-71
2021/01/02 07:56:37;;;;;;;43.60;29.07;;;;;;;6.14;70.99;100903.16;5040810;28;20421;-71
2021/01/02 07:59:21;;;;;;;43.10;28.53;;;;;;;6.26;71.22;100905.25;5040499;28;20517;-72
2021/01/02 08:01:55;;;;;;;49.20;34.53;;;;;;;5.88;71.39;100903.19;5040843;28;20503;-72
2021/01/02 08:04:22;;;;;;;42.47;30.30;;;;;;;6.01;71.51;100904.50;5040634;28;20416;-71
2021/01/02 08:06:51;;;;;;;48.43;30.40;;;;;;;6.29;70.79;100913.09;5040671;28;20409;-72
2021/01/02 08:09:16;;;;;;;45.73;31.13;;;;;;;6.02;71.67;100912.31;5040375;28;20416;-72
2021/01/02 08:11:54;;;;;;;44.60;29.83;;;;;;;6.53;69.93;100918.97;5040599;28;20817;-73
2021/01/02 08:14:20;;;;;;;47.33;32.20;;;;;;;6.15;70.95;100923.03;5040501;28;20219;-71
2021/01/02 08:17:04;;;;;;;44.43;29.53;;;;;;;6.33;70.48;100927.88;5040410;28;20412;-72
2021/01/02 08:19:32;;;;;;;48.47;32.23;;;;;;;6.22;70.77;100924.97;5040011;28;20471;-71
2021/01/02 08:21:58;;;;;;;48.50;31.87;;;;;;;6.42;70.41;100928.16;5040412;28;20405;-72
2021/01/02 08:24:24;;;;;;;44.33;30.10;;;;;;;6.15;71.28;100929.09;5040033;28;20456;-72
2021/01/02 08:26:49;;;;;;;48.87;32.00;;;;;;;6.15;71.32;100926.50;5040126;28;20493;-72
2021/01/02 08:29:24;;;;;;;53.90;32.57;;;;;;;6.46;70.84;100934.31;5039657;28;20163;-71
2021/01/02 08:31:57;;;;;;;48.07;33.13;;;;;;;6.44;69.83;100934.28;5040011;28;20173;-71
2021/01/02 08:34:26;;;;;;;47.17;31.87;;;;;;;6.23;71.01;100940.53;5039462;28;20857;-71
2021/01/02 08:37:04;;;;;;;42.90;28.43;;;;;;;5.73;71.58;100942.41;5039254;28;20420;-71
2021/01/02 08:39:30;;;;;;;48.33;33.10;;;;;;;6.20;71.07;100947.38;5039859;28;20460;-71
2021/01/02 08:41:57;;;;;;;55.07;33.60;;;;;;;6.17;70.81;100942.06;5039758;28;20427;-71
2021/01/02 08:44:25;;;;;;;46.40;30.60;;;;;;;5.94;72.13;100957.75;5039732;28;20221;-71
2021/01/02 08:46:50;;;;;;;44.23;30.57;;;;;;;6.13;71.35;100947.97;5040158;28;20416;-70
2021/01/02 08:49:29;;;;;;;55.03;31.23;;;;;;;6.22;70.82;100951.75;5039430;28;20433;-71
2021/01/02 08:52:20;;;;;;;49.80;31.50;;;;;;;6.53;69.73;100952.66;5039896;28;20292;-71
2021/01/02 08:54:49;;;;;;;48.50;30.87;;;;;;;6.16;70.78;100963.63;5038851;28;20405;-71
2021/01/02 08:57:32;;;;;;;47.53;30.83;;;;;;;6.17;71.17;100960.19;5038810;28;20443;-71
2021/01/02 09:00:05;;;;;;;43.60;29.47;;;;;;;5.98;71.85;100969.09;5039486;28;20428;-71
2021/01/02 09:02:30;;;;;;;42.70;29.90;;;;;;;5.98;72.22;100971.66;5039657;28;20547;-71
2021/01/02 09:05:03;;;;;;;48.90;30.27;;;;;;;6.10;71.47;100963.44;5039536;28;20446;-71
2021/01/02 09:07:28;;;;;;;47.80;30.53;;;;;;;6.16;71.43;100976.56;5039522;28;20170;-71
2021/01/02 09:10:11;;;;;;;51.83;30.23;;;;;;;6.23;70.67;100983.69;5039631;28;20745;-71
2021/01/02 09:12:36;;;;;;;47.07;29.27;;;;;;;6.34;70.11;100974.53;5039324;28;20170;-71
2021/01/02 09:15:02;;;;;;;48.67;30.70;;;;;;;6.21;71.62;100982.75;5039375;28;20432;-71
2021/01/02 09:17:27;;;;;;;48.80;31.30;;;;;;;6.19;71.06;100984.44;5039120;28;20178;-71
2021/01/02 09:19:53;;;;;;;48.47;30.87;;;;;;;6.29;70.67;100980.41;5038958;28;20201;-72
2021/01/02 09:22:18;;;;;;;45.23;30.30;;;;;;;6.30;70.49;100982.19;5039566;28;20430;-72
2021/01/02 09:24:43;;;;;;;45.77;29.43;;;;;;;6.15;71.33;100990.34;5039143;28;20237;-71
2021/01/02 09:27:08;;;;;;;40.27;28.33;;;;;;;6.54;69.95;100985.50;5039002;28;20175;-71
2021/01/02 09:29:38;;;;;;;46.53;30.70;;;;;;;6.16;70.75;100990.38;5039132;28;20162;-71
2021/01/02 09:32:10;;;;;;;43.90;28.67;;;;;;;6.51;69.86;100993.19;5038867;28;20170;-72
2021/01/02 09:34:35;;;;;;;47.63;30.17;;;;;;;6.31;70.15;100997.75;5038695;28;20500;-72
2021/01/02 09:37:00;;;;;;;42.27;28.83;;;;;;;6.38;69.88;100999.69;5038735;28;20499;-71
2021/01/02 09:39:25;;;;;;;45.50;29.77;;;;;;;6.31;70.69;100997.75;5038510;28;20241;-71
2021/01/02 09:41:51;;;;;;;44.77;28.47;;;;;;;6.37;70.09;101004.81;5038894;28;20539;-72
2021/01/02 09:44:16;;;;;;;43.40;28.30;;;;;;;6.09;70.98;101008.25;5038536;28;20183;-72
2021/01/02 09:46:41;;;;;;;50.03;30.50;;;;;;;6.36;69.75;101005.66;5037661;28;20183;-72
2021/01/02 09:49:07;;;;;;;47.63;29.90;;;;;;;6.52;69.77;101007.00;5038670;28;20174;-71
2021/01/02 09:51:32;;;;;;;46.23;30.63;;;;;;;6.62;68.48;101009.06;5038448;28;20170;-72
2021/01/02 09:53:57;;;;;;;49.30;32.60;;;;;;;6.56;69.02;101014.94;5038487;28;20216;-72
2021/01/02 09:56:23;;;;;;;46.07;29.80;;;;;;;6.45;69.36;101018.03;5038841;28;20166;-72
2021/01/02 09:58:48;;;;;;;45.93;30.17;;;;;;;6.09;71.19;101018.59;5038276;28;20264;-71
2021/01/02 10:01:14;;;;;;;47.30;31.03;;;;;;;6.50;69.71;101016.47;5038289;28;20178;-71
2021/01/02 10:03:40;;;;;;;49.93;32.50;;;;;;;6.41;69.91;101024.81;5038447;28;20232;-72
2021/01/02 10:06:05;;;;;;;48.87;30.23;;;;;;;6.26;69.89;101017.44;5038269;28;20421;-72
2021/01/02 10:08:30;;;;;;;47.13;31.80;;;;;;;6.51;69.24;101015.63;5038225;28;20453;-72
2021/01/02 10:10:56;;;;;;;49.23;31.03;;;;;;;6.32;69.85;101016.75;5038566;28;20185;-72
2021/01/02 10:13:21;;;;;;;46.10;30.70;;;;;;;6.63;69.96;101018.59;5038148;28;20493;-71
2021/01/02 10:15:47;;;;;;;46.57;31.57;;;;;;;6.61;69.34;101016.78;5037946;28;20178;-71
2021/01/02 10:18:12;;;;;;;43.27;30.47;;;;;;;6.43;69.73;101019.66;5038591;28;20202;-78
2021/01/02 10:20:38;;;;;;;44.77;30.40;;;;;;;6.55;69.34;101025.25;5038251;28;20547;-77
2021/01/02 10:23:03;;;;;;;44.70;30.90;;;;;;;6.70;68.88;101024.84;5035282;28;20711;-71
2021/01/02 10:25:29;;;;;;;42.50;28.67;;;;;;;6.44;71.32;101024.03;5036626;28;20312;-72
2021/01/02 10:27:55;;;;;;;44.73;28.33;;;;;;;6.63;69.65;101025.47;5037784;28;20182;-73
2021/01/02 10:30:20;;;;;;;47.17;31.17;;;;;;;6.48;69.86;101029.38;5037821;28;20413;-72
2021/01/02 10:32:46;;;;;;;48.10;30.03;;;;;;;5.90;72.29;101036.97;5037633;28;20264;-72
2021/01/02 10:35:13;;;;;;;43.40;28.27;;;;;;;6.86;69.11;101027.03;5037487;28;20553;-70
2021/01/02 10:37:39;;;;;;;45.60;29.50;;;;;;;6.72;70.15;101021.47;5037582;28;20186;-70
2021/01/02 10:40:06;;;;;;;43.93;28.47;;;;;;;6.81;69.54;101032.94;5037525;28;20424;-70
2021/01/02 10:42:32;;;;;;;42.63;28.90;;;;;;;6.83;68.60;101031.25;5036867;28;20196;-69
2021/01/02 10:44:58;;;;;;;39.47;27.80;;;;;;;6.50;70.04;101032.88;5036111;28;20492;-70
2021/01/02 10:47:26;;;;;;;44.30;30.40;;;;;;;6.57;70.82;101023.56;5037501;28;20421;-70
2021/01/02 10:49:52;;;;;;;42.67;27.87;;;;;;;6.86;69.33;101021.88;5037573;28;20495;-71
2021/01/02 10:52:19;;;;;;;46.33;30.37;;;;;;;6.71;69.86;101029.16;5037592;28;20452;-70
2021/01/02 10:54:45;;;;;;;45.10;30.27;;;;;;;7.10;68.25;101027.72;5037249;28;20193;-70
2021/01/02 10:57:11;;;;;;;44.77;30.00;;;;;;;6.69;69.27;101031.72;5036138;28;20470;-70
2021/01/02 10:59:36;;;;;;;47.30;31.70;;;;;;;6.94;69.17;101032.47;5037387;28;20444;-69
2021/01/02 11:02:02;;;;;;;42.90;28.73;;;;;;;7.08;68.40;101032.84;5037277;28;20211;-69
2021/01/02 11:04:27;;;;;;;42.17;28.50;;;;;;;6.82;68.49;101038.16;5037409;28;20600;-69
2021/01/02 11:06:53;;;;;;;42.63;29.23;;;;;;;6.93;68.80;101033.28;5037664;28;20181;-69
2021/01/02 11:09:21;;;;;;;42.30;28.43;;;;;;;6.81;69.09;101038.13;5037179;28;20220;-69
2021/01/02 11:11:47;;;;;;;37.97;27.40;;;;;;;6.63;69.39;101036.72;5037402;28;20421;-69
2021/01/02 11:14:13;;;;;;;40.83;27.70;;;;;;;6.54;69.82;101041.63;5037617;28;20401;-69
2021/01/02 11:16:41;;;;;;;41.90;29.53;;;;;;;6.86;69.21;101036.50;5037272;28;20212;-69
2021/01/02 11:19:18;;;;;;;51.80;30.57;;;;;;;6.69;69.07;101039.50;5036944;28;20492;-70
2021/01/02 11:21:47;;;;;;;41.60;27.70;;;;;;;6.85;69.00;101034.78;5037147;28;20678;-68
2021/01/02 11:24:14;;;;;;;42.63;28.63;;;;;;;6.98;67.84;101039.50;5036147;28;20594;-69
2021/01/02 11:26:45;;;;;;;41.43;27.10;;;;;;;6.69;68.92;101028.25;5037418;28;20417;-69
2021/01/02 11:29:12;;;;;;;39.47;27.70;;;;;;;6.68;69.31;101032.53;5036914;28;20500;-69